KGRK/GRK METAR and TAF weather

Enter ICAO airport designator
Station Type Date Time Source
KGRK METAR 2019/06/19 00:58 UTC NOAA

KGRK 190058Z AUTO 11009KT 10SM CLR 30/23 A2984 RMK AO2 SLP094 T03000226


Station Type Date Time Source
KGRK Decoded METAR 2019/06/19 00:58 UTC NOAA

Fort Hood, Robert Gray AAF Ft Hood, TX, United States (KGRK) 31-04N 097-49W
Jun 18, 2019 - 08:58 PM EDT / 2019.06.19 0058 UTC
Wind: from the ESE (110 degrees) at 10 MPH (9 KT):0
Visibility: 10 mile(s):0
Sky conditions: clear
Temperature: 86.0 F (30.0 C)
Heat index: 92.7 F (33.7 C):1
Dew Point: 72.7 F (22.6 C)
Relative Humidity: 64%
Pressure (altimeter): 29.84 in. Hg (1010 hPa)
ob: KGRK 190058Z AUTO 11009KT 10SM CLR 30/23 A2984 RMK AO2 SLP094 T03000226
cycle: 1

Station Type Date Time Source
KGRK TAF 2019/06/19 00:18 UTC NOAA

TAF
AMD KGRK 190000Z 1900/2006 14009KT 9999 SCT050 QNH2983INS
BECMG 1905/1906 17012KT 9999 FEW160 SCT230 QNH2984INS
BECMG 1914/1915 19015G20KT 9999 SKC QNH2974INS
BECMG 2002/2003 16012KT 9999 SKC QNH2970INS TX34/1921Z TN21/1912Z

Example: see airport list